Lanham, West Virginia
Current Conditions -  °F | °C
As of 6:54 PM on Saturday 22 Nov 2014 (Local Time) from KCRW Reporting Station
Few Clouds Few Clouds  
Wind Chill: 50°   Ceiling: Unl
Heat Index: 50°   Visibility: 10mi
Dew Point: 25°   Wind: 5mph
Humidity: 38%   Direction: 180°S
Pressure: 30.17"   Gusts: NA
Location:  38.5242°N, 81.7911°W
Report Text: KCRW 222354Z 18004KT 10SM FEW100 10/M04 A3017 RMK AO2 SLP223 T01001039 10167 20094 57010
Loading
Personal Weather Stations






























Interactive Weather Map New forecast layout! Learn more

10-Day Weather Forecast

Advertisements
Track Severe Weather on mobile